createdAt,value
2022-10-26T04:02:58.622Z,8.90
2022-10-26T04:05:28.880Z,8.90
2022-10-26T04:07:59.124Z,8.90
2022-10-26T04:10:28.987Z,8.90
2022-10-26T04:12:58.831Z,8.80
2022-10-26T04:15:26.878Z,8.80
2022-10-26T04:18:00.815Z,8.90
2022-10-26T04:20:30.683Z,8.80
2022-10-26T04:23:00.135Z,8.80
2022-10-26T04:25:30.174Z,8.80
2022-10-26T04:28:01.810Z,8.80
2022-10-26T04:30:30.081Z,8.80
2022-10-26T04:32:59.568Z,8.80
2022-10-26T04:35:28.003Z,8.80
2022-10-26T04:37:59.942Z,8.80
2022-10-26T04:40:30.165Z,8.80
2022-10-26T04:42:58.725Z,8.80
2022-10-26T04:45:28.509Z,8.90
2022-10-26T04:48:07.655Z,8.90
2022-10-26T04:50:36.844Z,8.90
2022-10-26T04:53:05.544Z,9.00
2022-10-26T04:55:33.716Z,9.00
2022-10-26T04:58:02.383Z,9.00
2022-10-26T05:00:32.696Z,9.00
2022-10-26T05:03:01.336Z,9.10
2022-10-26T05:05:32.878Z,9.10
2022-10-26T05:08:01.055Z,9.10
2022-10-26T05:10:29.791Z,9.00
2022-10-26T05:13:00.196Z,9.00
2022-10-26T05:15:29.220Z,9.00
2022-10-26T05:17:58.847Z,9.00
2022-10-26T05:20:31.173Z,9.00
2022-10-26T05:23:01.661Z,9.00
2022-10-26T05:25:32.547Z,9.00
2022-10-26T05:28:02.206Z,9.00
2022-10-26T05:30:31.244Z,8.90
2022-10-26T05:33:02.150Z,8.90
2022-10-26T05:35:32.679Z,8.90
2022-10-26T05:38:01.977Z,8.80
2022-10-26T05:40:29.937Z,8.80
2022-10-26T05:43:02.132Z,8.80
2022-10-26T05:45:30.863Z,8.80
2022-10-26T05:48:02.524Z,8.80
2022-10-26T05:50:32.625Z,8.70
2022-10-26T05:53:00.612Z,8.70
2022-10-26T05:55:29.639Z,8.70
2022-10-26T05:57:58.362Z,8.60
2022-10-26T06:00:29.322Z,8.60
2022-10-26T06:03:24.522Z,8.60
2022-10-26T06:05:57.769Z,8.60
2022-10-26T06:08:28.875Z,8.60
2022-10-26T06:10:59.593Z,8.60
2022-10-26T06:13:29.602Z,8.60
2022-10-26T06:16:29.192Z,8.60
2022-10-26T06:19:14.707Z,8.60
2022-10-26T06:22:05.368Z,8.60
2022-10-26T06:24:44.809Z,8.60
2022-10-26T06:27:29.504Z,8.60
2022-10-26T06:30:02.813Z,8.60
2022-10-26T06:32:31.727Z,8.70
2022-10-26T06:35:14.875Z,8.70
2022-10-26T06:37:46.408Z,8.70
2022-10-26T06:40:17.986Z,8.80
2022-10-26T06:42:47.152Z,8.80
2022-10-26T06:45:18.173Z,8.90
2022-10-26T06:47:57.200Z,8.90
2022-10-26T06:50:38.170Z,9.00
2022-10-26T06:53:26.213Z,9.00
2022-10-26T06:55:56.093Z,9.10
2022-10-26T06:58:30.054Z,9.10
2022-10-26T07:00:59.191Z,9.20
2022-10-26T07:03:27.340Z,9.20
2022-10-26T07:05:55.536Z,9.30
2022-10-26T07:08:25.251Z,9.40
2022-10-26T07:10:53.268Z,9.40
2022-10-26T07:13:21.278Z,9.50
2022-10-26T07:15:49.315Z,9.50
2022-10-26T07:18:17.325Z,9.60
2022-10-26T07:20:45.301Z,9.70
2022-10-26T07:23:13.292Z,9.80
2022-10-26T07:25:42.743Z,9.90
2022-10-26T07:28:12.273Z,10.00
2022-10-26T07:30:41.623Z,10.10
2022-10-26T07:33:13.091Z,10.20
2022-10-26T07:35:41.715Z,10.30
2022-10-26T07:38:10.662Z,10.40
2022-10-26T07:40:38.988Z,10.50
2022-10-26T07:43:08.303Z,10.60
2022-10-26T07:45:36.751Z,10.70
2022-10-26T07:48:05.303Z,10.70
2022-10-26T07:50:33.304Z,10.80
2022-10-26T07:53:01.307Z,11.00
2022-10-26T07:55:29.274Z,11.00
2022-10-26T07:57:57.615Z,11.10
2022-10-26T08:00:28.787Z,11.20
2022-10-26T08:02:57.436Z,11.30
2022-10-26T08:05:25.712Z,11.40
2022-10-26T08:07:53.713Z,11.50
2022-10-26T08:10:21.739Z,11.50
2022-10-26T08:12:49.780Z,11.50
2022-10-26T08:15:17.895Z,11.60
2022-10-26T08:17:47.473Z,11.70
2022-10-26T08:20:15.902Z,11.80
2022-10-26T08:22:43.911Z,11.80
2022-10-26T08:25:11.938Z,11.90
2022-10-26T08:27:39.968Z,11.90
2022-10-26T08:30:09.110Z,11.90
2022-10-26T08:32:37.308Z,12.00
2022-10-26T08:35:07.764Z,12.10
2022-10-26T08:37:35.968Z,12.20
2022-10-26T08:40:04.971Z,12.30
2022-10-26T08:42:41.601Z,12.40
2022-10-26T08:45:28.754Z,12.90
2022-10-26T08:48:04.214Z,12.90
2022-10-26T08:50:42.921Z,13.40
2022-10-26T08:53:21.044Z,13.40
2022-10-26T08:55:59.230Z,13.90
2022-10-26T08:58:38.737Z,14.20
2022-10-26T09:01:09.783Z,14.40
2022-10-26T09:03:40.489Z,14.60
2022-10-26T09:06:29.653Z,14.60
2022-10-26T09:09:08.095Z,15.10
2022-10-26T09:12:03.071Z,15.30
2022-10-26T09:14:49.292Z,15.50
2022-10-26T09:17:37.637Z,15.70
2022-10-26T09:20:46.955Z,15.90
2022-10-26T09:23:48.367Z,16.20
2022-10-26T09:26:30.326Z,16.10
2022-10-26T09:29:03.743Z,16.30
2022-10-26T09:31:43.423Z,16.50
2022-10-26T09:34:25.023Z,16.50
2022-10-26T09:36:56.456Z,16.70
2022-10-26T09:39:39.909Z,16.90
2022-10-26T09:42:19.820Z,17.00
2022-10-26T09:44:59.080Z,17.00
2022-10-26T09:47:36.710Z,17.00
2022-10-26T09:50:21.123Z,17.20
2022-10-26T09:52:49.457Z,17.30
2022-10-26T09:55:20.805Z,17.40
2022-10-26T09:57:53.564Z,17.50
2022-10-26T10:00:24.814Z,17.70
2022-10-26T10:02:55.211Z,17.80
2022-10-26T10:05:50.421Z,17.80
2022-10-26T10:08:22.672Z,17.90
2022-10-26T10:11:06.382Z,18.10
2022-10-26T10:13:37.349Z,18.20
2022-10-26T10:16:11.701Z,18.50
2022-10-26T10:18:42.214Z,18.70
2022-10-26T10:21:11.694Z,19.00
2022-10-26T10:23:53.236Z,18.90
2022-10-26T10:26:22.560Z,19.00
2022-10-26T10:29:00.240Z,19.30
2022-10-26T10:31:33.700Z,19.50
2022-10-26T10:34:01.766Z,19.80
2022-10-26T10:36:31.664Z,20.10
2022-10-26T10:39:20.911Z,20.20
2022-10-26T10:41:50.242Z,20.40
2022-10-26T10:44:29.703Z,20.70
2022-10-26T10:49:35.634Z,21.00
2022-10-26T10:52:03.644Z,21.30
2022-10-26T10:54:36.030Z,21.50
2022-10-26T10:57:24.140Z,21.60
2022-10-26T11:00:04.505Z,21.60
2022-10-26T11:03:16.733Z,22.20
2022-10-26T11:06:04.141Z,22.20
2022-10-26T11:08:43.831Z,23.00
2022-10-26T11:11:17.721Z,22.60
2022-10-26T11:13:56.597Z,22.50
2022-10-26T11:16:31.345Z,22.70
2022-10-26T11:19:06.951Z,23.00
2022-10-26T11:21:38.969Z,23.30
2022-10-26T11:24:19.009Z,23.60
2022-10-26T11:26:56.461Z,23.80
2022-10-26T11:29:38.199Z,23.90
2022-10-26T11:32:17.802Z,24.30
2022-10-26T11:34:54.940Z,24.60
2022-10-26T11:37:32.070Z,24.70
2022-10-26T11:40:15.916Z,24.90
2022-10-26T11:42:51.457Z,25.00
2022-10-26T11:45:28.893Z,25.40
2022-10-26T11:48:07.974Z,25.80
2022-10-26T11:50:44.140Z,26.20
2022-10-26T11:53:17.953Z,26.60
2022-10-26T11:55:53.121Z,26.60
2022-10-26T11:58:26.819Z,26.80
2022-10-26T12:01:01.890Z,27.20
2022-10-26T12:03:36.068Z,27.70
2022-10-26T12:06:04.555Z,27.80
2022-10-26T12:08:38.566Z,28.50
2022-10-26T12:11:15.911Z,29.20
2022-10-26T12:13:51.777Z,29.30
2022-10-26T12:16:44.220Z,29.40
2022-10-26T12:19:22.820Z,29.30
2022-10-26T12:21:52.776Z,29.70
2022-10-26T12:24:35.145Z,30.00
2022-10-26T12:27:05.331Z,30.40
2022-10-26T12:29:40.131Z,30.80
2022-10-26T12:32:53.859Z,31.40
2022-10-26T12:35:46.632Z,31.90
2022-10-26T12:39:00.090Z,32.50
2022-10-26T13:30:45.189Z,33.60
2022-10-26T13:33:24.311Z,34.20
2022-10-26T13:35:57.725Z,34.50
2022-10-26T13:38:33.684Z,35.30
2022-10-26T13:41:11.913Z,34.90
2022-10-26T13:43:40.616Z,34.60
2022-10-26T13:46:24.334Z,34.20
2022-10-26T13:48:55.894Z,34.50
2022-10-26T13:51:30.156Z,34.50
2022-10-26T13:54:08.454Z,34.50
2022-10-26T13:56:50.453Z,33.70
2022-10-26T14:02:08.317Z,35.20
2022-10-26T14:04:36.310Z,35.80
2022-10-26T14:07:04.458Z,35.70
2022-10-26T14:09:32.617Z,36.00
2022-10-26T14:12:03.468Z,36.10
2022-10-26T14:14:35.507Z,36.30
2022-10-26T14:17:05.342Z,36.50
2022-10-26T14:19:37.457Z,36.60
2022-10-26T14:22:06.224Z,34.90
2022-10-26T14:24:46.890Z,35.10
2022-10-26T14:27:19.334Z,35.60
2022-10-26T14:30:03.581Z,36.10
2022-10-26T14:32:37.003Z,36.10
2022-10-26T14:35:06.162Z,35.20
2022-10-26T14:37:44.014Z,35.00
2022-10-26T14:40:19.144Z,35.30
2022-10-26T14:42:52.107Z,34.90
2022-10-26T14:45:47.571Z,33.80
2022-10-26T14:48:25.110Z,32.10
2022-10-26T14:51:01.401Z,29.60
2022-10-26T14:53:38.136Z,28.10
2022-10-26T14:56:21.559Z,26.80
2022-10-26T14:58:51.497Z,25.90
2022-10-26T15:01:35.735Z,24.90
2022-10-26T15:04:07.457Z,24.00
2022-10-26T15:06:42.550Z,23.30
2022-10-26T15:09:38.713Z,22.80
2022-10-26T15:12:09.420Z,22.30
2022-10-26T15:14:43.889Z,22.50
2022-10-26T15:17:24.855Z,23.30
2022-10-26T15:19:53.679Z,24.00
2022-10-26T15:22:31.800Z,24.00
2022-10-26T15:25:04.925Z,23.60
2022-10-26T15:27:33.113Z,23.10
2022-10-26T15:30:21.742Z,22.50
2022-10-26T15:32:50.962Z,22.00
2022-10-26T15:35:32.131Z,21.60
2022-10-26T15:38:01.830Z,21.10
2022-10-26T15:40:32.373Z,20.70
2022-10-26T15:43:02.279Z,20.40
2022-10-26T15:45:47.927Z,20.00
2022-10-26T15:48:25.615Z,19.70
2022-10-26T15:50:53.903Z,19.40
2022-10-26T15:53:27.434Z,19.20
2022-10-26T15:55:58.949Z,18.90
2022-10-26T15:58:28.319Z,18.80
2022-10-26T16:01:00.364Z,18.50
2022-10-26T16:03:29.286Z,18.40
2022-10-26T16:06:01.613Z,18.20
2022-10-26T16:08:32.435Z,18.10
2022-10-26T16:11:00.573Z,17.90
2022-10-26T16:13:28.705Z,17.70
2022-10-26T16:15:56.736Z,17.60
2022-10-26T16:18:26.079Z,17.50
2022-10-26T16:20:54.096Z,17.30
2022-10-26T16:23:22.093Z,17.20
2022-10-26T16:25:50.142Z,17.00
2022-10-26T16:28:18.244Z,16.90
2022-10-26T16:30:46.354Z,16.80
2022-10-26T16:33:14.429Z,16.70
2022-10-26T16:35:43.799Z,16.60
2022-10-26T16:38:11.844Z,16.50
2022-10-26T16:40:42.490Z,16.50
2022-10-26T16:43:10.576Z,16.40
2022-10-26T16:45:41.540Z,16.40
2022-10-26T16:48:14.593Z,16.40
2022-10-26T16:50:44.135Z,16.30
2022-10-26T16:53:12.178Z,16.30
2022-10-26T16:55:40.279Z,16.30
2022-10-26T16:58:08.358Z,16.20
2022-10-26T17:00:37.288Z,16.20
2022-10-26T17:03:05.697Z,16.20
2022-10-26T17:05:33.705Z,16.20
2022-10-26T17:08:02.958Z,16.20
2022-10-26T17:10:30.931Z,16.10
2022-10-26T17:12:58.923Z,16.20
2022-10-26T17:15:29.194Z,16.20
2022-10-26T17:17:57.488Z,16.20
2022-10-26T17:20:25.556Z,16.20
2022-10-26T17:22:53.598Z,16.20
2022-10-26T17:25:22.915Z,16.20
2022-10-26T17:27:50.951Z,16.20
2022-10-26T17:30:19.187Z,16.20
2022-10-26T17:32:47.371Z,16.20
2022-10-26T17:35:16.882Z,16.30
2022-10-26T17:37:44.995Z,16.30
2022-10-26T17:40:13.584Z,16.30
2022-10-26T17:42:42.910Z,16.30
2022-10-26T17:45:12.273Z,16.30
2022-10-26T17:47:40.290Z,16.30
2022-10-26T17:50:09.924Z,16.30
2022-10-26T17:52:38.282Z,16.30
2022-10-26T17:55:06.991Z,16.30
2022-10-26T17:57:35.048Z,16.30
2022-10-26T18:00:06.478Z,16.30
2022-10-26T18:02:37.423Z,16.30
2022-10-26T18:05:07.813Z,16.30
2022-10-26T18:07:36.299Z,16.30
2022-10-26T18:10:19.523Z,16.30
2022-10-26T18:12:53.100Z,16.30
2022-10-26T18:15:23.804Z,16.30
2022-10-26T18:17:56.784Z,16.30
2022-10-26T18:20:27.788Z,16.30
2022-10-26T18:22:57.079Z,16.30
2022-10-26T18:25:25.478Z,16.30
2022-10-26T18:27:53.627Z,16.30
2022-10-26T18:30:23.158Z,16.30
2022-10-26T18:32:52.520Z,16.20
2022-10-26T18:35:21.153Z,16.20
2022-10-26T18:37:49.665Z,16.30
2022-10-26T18:40:18.180Z,16.20
2022-10-26T18:42:46.141Z,16.20
2022-10-26T18:45:14.113Z,16.20
2022-10-26T18:47:43.513Z,16.20
2022-10-26T18:50:11.639Z,16.20
2022-10-26T18:52:39.662Z,16.20
2022-10-26T18:55:09.678Z,16.20
2022-10-26T18:57:37.753Z,16.20
2022-10-26T19:00:07.040Z,16.20
2022-10-26T19:02:35.008Z,16.20
2022-10-26T19:05:04.366Z,16.10
2022-10-26T19:07:32.434Z,16.10
2022-10-26T19:10:00.365Z,16.10
2022-10-26T19:12:28.612Z,16.10
2022-10-26T19:14:56.588Z,16.00
2022-10-26T19:17:24.631Z,16.00
2022-10-26T19:19:52.549Z,16.00
2022-10-26T19:22:22.032Z,15.90
2022-10-26T19:24:50.147Z,15.90
2022-10-26T19:29:51.148Z,15.80
2022-10-26T19:32:19.154Z,15.80
2022-10-26T19:34:47.134Z,15.80
2022-10-26T19:37:15.209Z,15.70
2022-10-26T19:39:44.557Z,15.70
2022-10-26T19:42:12.555Z,15.70
2022-10-26T19:44:40.529Z,15.70
2022-10-26T19:47:08.731Z,15.60
2022-10-26T19:49:36.864Z,15.60
2022-10-26T19:52:05.063Z,15.50
2022-10-26T19:54:33.125Z,15.40
2022-10-26T19:57:02.462Z,15.30
2022-10-26T19:59:30.439Z,15.30
2022-10-26T20:02:00.282Z,15.20
2022-10-26T20:04:28.369Z,15.10
2022-10-26T20:06:56.389Z,15.10
2022-10-26T20:09:24.454Z,15.00
2022-10-26T20:11:52.440Z,14.90
2022-10-26T20:14:21.676Z,14.90
2022-10-26T20:16:49.774Z,14.80
2022-10-26T20:19:17.771Z,14.80
2022-10-26T20:21:47.230Z,14.70
2022-10-26T20:24:15.393Z,14.60
2022-10-26T20:26:43.358Z,14.60
2022-10-26T20:29:11.491Z,14.50
2022-10-26T20:31:40.846Z,14.50
2022-10-26T20:34:09.475Z,14.40
2022-10-26T20:36:37.483Z,14.40
2022-10-26T20:39:06.335Z,14.30
2022-10-26T20:41:35.169Z,14.30
2022-10-26T20:44:04.068Z,14.30
2022-10-26T20:46:32.817Z,14.20
2022-10-26T20:49:02.926Z,14.20
2022-10-26T20:51:51.913Z,14.20
2022-10-26T20:54:40.052Z,14.10
2022-10-26T20:57:18.626Z,14.10
2022-10-26T20:59:50.968Z,14.10
